Time;durP1;ratioP1;P1;durP2;ratioP2;P2;SDS_P1;SDS_P2;PMS_P1;PMS_P2;Temp;Humidity;BMP_temperature;BMP_pressure;BME280_temperature;BME280_humidity;BME280_pressure;Samples;Min_cycle;Max_cycle;Signal;HPM_P1;HPM_P2
2022/11/22 00:01:01;;;;;;;28.38;14.45;;;3.60;99.90;;;;;;5075398;28;20031;-65
2022/11/22 00:03:27;;;;;;;28.08;15.18;;;3.70;99.90;;;;;;5069350;28;20040;-65
2022/11/22 00:05:52;;;;;;;28.05;14.65;;;3.60;99.90;;;;;;5063129;28;21718;-65
2022/11/22 00:08:18;;;;;;;29.75;15.15;;;3.70;99.90;;;;;;5077088;28;20059;-65
2022/11/22 00:10:43;;;;;;;28.42;14.32;;;3.70;99.90;;;;;;5077074;28;20064;-65
2022/11/22 00:13:09;;;;;;;25.48;13.63;;;3.70;99.90;;;;;;5071070;28;20398;-65
2022/11/22 00:15:34;;;;;;;28.05;13.73;;;3.70;99.90;;;;;;5069108;28;20036;-65
2022/11/22 00:18:00;;;;;;;25.27;13.95;;;3.70;99.90;;;;;;5065155;28;20040;-65
2022/11/22 00:20:26;;;;;;;32.53;15.15;;;3.70;99.90;;;;;;5067361;28;20047;-65
2022/11/22 00:22:52;;;;;;;29.80;14.15;;;3.70;99.90;;;;;;5073697;28;20039;-65
2022/11/22 00:25:18;;;;;;;29.63;14.18;;;3.70;99.90;;;;;;5069938;28;20742;-65
2022/11/22 00:27:43;;;;;;;30.65;14.30;;;3.70;99.90;;;;;;5070507;28;20047;-65
2022/11/22 00:30:09;;;;;;;29.33;14.50;;;3.70;99.90;;;;;;5062413;28;20049;-65
2022/11/22 00:32:35;;;;;;;29.42;13.73;;;3.70;99.90;;;;;;5062489;28;20122;-65
2022/11/22 00:35:01;;;;;;;27.75;14.27;;;3.80;99.90;;;;;;5079193;28;20035;-65
2022/11/22 00:37:27;;;;;;;28.27;15.10;;;3.80;99.90;;;;;;5075757;28;20036;-65
2022/11/22 00:39:52;;;;;;;28.13;14.50;;;3.80;99.90;;;;;;5086888;28;20493;-65
2022/11/22 00:42:18;;;;;;;27.90;14.68;;;3.80;99.90;;;;;;5078755;28;20040;-65
2022/11/22 00:44:43;;;;;;;29.45;14.95;;;3.80;99.90;;;;;;5090498;28;20118;-65
2022/11/22 00:47:09;;;;;;;29.95;14.43;;;3.80;99.90;;;;;;5072975;28;20048;-65
2022/11/22 00:49:34;;;;;;;28.48;14.20;;;3.80;99.90;;;;;;5061478;28;20041;-65
2022/11/22 00:52:00;;;;;;;30.77;15.13;;;3.80;99.90;;;;;;5070727;28;20036;-65
2022/11/22 00:54:25;;;;;;;30.73;14.85;;;3.80;99.90;;;;;;5082927;28;20035;-65
2022/11/22 00:56:51;;;;;;;26.85;14.15;;;3.80;99.90;;;;;;5055597;28;20051;-65
2022/11/22 00:59:16;;;;;;;29.42;14.93;;;3.80;99.90;;;;;;5068811;28;20044;-65
2022/11/22 01:01:42;;;;;;;25.88;14.73;;;3.80;99.90;;;;;;5087538;28;20040;-65
2022/11/22 01:04:08;;;;;;;30.50;14.52;;;3.80;99.90;;;;;;5091571;28;20037;-65
2022/11/22 01:06:34;;;;;;;30.70;14.68;;;3.70;99.90;;;;;;5074677;28;20040;-65
2022/11/22 01:09:00;;;;;;;28.75;14.00;;;3.80;99.90;;;;;;5086424;28;20032;-65
2022/11/22 01:11:25;;;;;;;31.73;15.85;;;3.80;99.90;;;;;;5082870;28;20028;-65
2022/11/22 01:13:51;;;;;;;28.13;14.35;;;3.80;99.90;;;;;;5078920;28;20041;-65
2022/11/22 01:16:17;;;;;;;30.98;15.27;;;3.80;99.90;;;;;;5069914;28;20043;-65
2022/11/22 01:18:43;;;;;;;32.30;15.88;;;3.80;99.90;;;;;;5073689;28;20043;-65
2022/11/22 01:21:09;;;;;;;34.25;15.77;;;3.80;99.90;;;;;;5072576;28;20036;-65
2022/11/22 01:23:34;;;;;;;33.28;14.50;;;3.80;99.90;;;;;;5084097;28;20071;-65
2022/11/22 01:26:00;;;;;;;29.25;15.77;;;3.80;99.90;;;;;;5081203;28;20040;-65
2022/11/22 01:28:26;;;;;;;30.40;14.05;;;3.80;99.90;;;;;;5074006;28;20036;-65
2022/11/22 01:30:52;;;;;;;30.90;14.40;;;3.80;99.90;;;;;;5068774;28;20138;-65
2022/11/22 01:33:19;;;;;;;32.08;14.65;;;3.80;99.90;;;;;;5070960;28;20471;-65
2022/11/22 01:35:45;;;;;;;29.77;14.77;;;3.80;99.90;;;;;;5055696;28;20047;-65
2022/11/22 01:38:11;;;;;;;31.52;14.88;;;3.80;99.90;;;;;;5066427;28;20040;-65
2022/11/22 01:40:36;;;;;;;32.60;16.13;;;3.80;99.90;;;;;;5083121;28;20036;-65
2022/11/22 01:43:03;;;;;;;28.70;14.45;;;3.80;99.90;;;;;;5080731;28;20424;-65
2022/11/22 01:45:28;;;;;;;27.70;13.82;;;3.90;99.90;;;;;;5073222;28;20033;-65
2022/11/22 01:47:57;;;;;;;29.40;15.23;;;3.90;99.90;;;;;;5073082;28;20166;-65
2022/11/22 01:50:24;;;;;;;33.78;14.55;;;3.90;99.90;;;;;;5074931;28;20028;-65
2022/11/22 01:52:49;;;;;;;32.95;15.75;;;3.90;99.90;;;;;;5073213;28;20118;-65
2022/11/22 01:55:15;;;;;;;28.30;14.98;;;3.90;99.90;;;;;;5076865;28;20090;-65
2022/11/22 01:57:43;;;;;;;31.42;14.70;;;3.90;99.90;;;;;;5072826;28;20040;-65
2022/11/22 02:00:12;;;;;;;27.25;14.20;;;4.00;99.90;;;;;;5082447;28;20105;-65
2022/11/22 02:02:37;;;;;;;31.05;13.88;;;4.00;99.90;;;;;;5064998;28;20040;-65
2022/11/22 02:05:08;;;;;;;30.23;14.10;;;4.00;99.90;;;;;;5065372;28;20040;-65
2022/11/22 02:07:37;;;;;;;32.83;14.57;;;4.00;99.90;;;;;;5083617;28;20096;-65
2022/11/22 02:10:03;;;;;;;28.98;14.68;;;4.00;99.90;;;;;;5070395;28;20037;-64
2022/11/22 02:12:30;;;;;;;29.75;14.00;;;4.00;99.90;;;;;;5069806;28;20047;-65
2022/11/22 02:14:56;;;;;;;27.17;12.95;;;4.00;99.90;;;;;;5071615;28;20042;-65
2022/11/22 02:17:25;;;;;;;29.80;15.13;;;4.00;99.90;;;;;;5067887;28;20045;-65
2022/11/22 02:19:52;;;;;;;32.53;15.13;;;4.00;99.90;;;;;;5072612;28;20060;-65
2022/11/22 02:23:02;;;;;;;31.85;14.98;;;4.10;99.90;;;;;;5069716;28;20128;-64
2022/11/22 02:25:33;;;;;;;32.92;14.73;;;4.00;99.90;;;;;;4988101;28;20046;-64
2022/11/22 02:27:59;;;;;;;31.67;14.60;;;4.10;99.90;;;;;;4990899;28;20488;-65
2022/11/22 02:30:24;;;;;;;28.35;13.80;;;4.10;99.90;;;;;;5031687;28;20048;-65
2022/11/22 02:32:50;;;;;;;26.98;13.82;;;4.00;99.90;;;;;;5078687;28;20048;-65
2022/11/22 02:35:20;;;;;;;30.15;14.70;;;4.10;99.90;;;;;;5070404;28;20044;-65
2022/11/22 02:37:47;;;;;;;30.98;15.00;;;4.10;99.90;;;;;;5069249;28;20047;-65
2022/11/22 02:40:15;;;;;;;28.73;14.05;;;4.10;99.90;;;;;;5071985;28;20036;-65
2022/11/22 02:42:47;;;;;;;30.23;13.63;;;4.10;99.90;;;;;;5083525;28;20044;-65
2022/11/22 02:45:13;;;;;;;29.85;14.18;;;4.10;99.90;;;;;;5071805;28;20127;-64
2022/11/22 02:47:38;;;;;;;30.73;14.43;;;4.10;99.90;;;;;;5071729;28;20032;-65
2022/11/22 02:50:05;;;;;;;30.55;15.07;;;4.10;99.90;;;;;;5073586;28;20032;-65
2022/11/22 02:52:30;;;;;;;30.95;14.20;;;4.10;99.90;;;;;;5062094;28;20045;-65
2022/11/22 02:54:56;;;;;;;34.13;15.40;;;4.10;99.90;;;;;;5054917;28;20044;-65
2022/11/22 02:57:21;;;;;;;27.98;14.07;;;4.10;99.90;;;;;;5078038;28;20063;-65
2022/11/22 02:59:47;;;;;;;29.52;15.40;;;4.10;99.90;;;;;;5086305;28;20032;-64
2022/11/22 03:02:12;;;;;;;28.20;13.98;;;4.10;99.90;;;;;;5078819;28;20032;-64
2022/11/22 03:04:38;;;;;;;29.80;13.80;;;4.10;99.90;;;;;;5079257;28;20483;-64
2022/11/22 03:07:03;;;;;;;28.33;14.18;;;4.10;99.90;;;;;;5070307;28;20425;-64
2022/11/22 03:09:29;;;;;;;26.70;14.00;;;4.10;99.90;;;;;;5071769;28;20712;-64
2022/11/22 03:11:55;;;;;;;28.13;13.65;;;4.20;99.90;;;;;;5071396;28;20111;-64
2022/11/22 03:14:21;;;;;;;28.20;14.23;;;4.20;99.90;;;;;;5072122;28;20093;-65
2022/11/22 03:16:47;;;;;;;30.40;14.77;;;4.20;99.90;;;;;;5069523;28;20069;-64
2022/11/22 03:19:13;;;;;;;26.10;12.90;;;4.20;99.90;;;;;;5082744;28;20075;-64
2022/11/22 03:21:40;;;;;;;31.80;14.38;;;4.20;99.90;;;;;;5064362;28;20123;-64
2022/11/22 03:24:07;;;;;;;30.35;13.98;;;4.30;99.90;;;;;;5071916;28;20606;-65
2022/11/22 03:26:33;;;;;;;30.60;13.70;;;4.30;99.90;;;;;;5079515;28;20378;-65
2022/11/22 03:28:59;;;;;;;26.63;13.43;;;4.30;99.90;;;;;;5092763;28;20040;-64
2022/11/22 03:31:25;;;;;;;29.33;14.15;;;4.30;99.90;;;;;;5074079;28;20495;-64
2022/11/22 03:33:50;;;;;;;29.15;13.63;;;4.30;99.90;;;;;;5081039;28;20110;-64
2022/11/22 03:36:16;;;;;;;28.50;13.93;;;4.30;99.90;;;;;;5071187;28;20211;-64
2022/11/22 03:38:41;;;;;;;29.85;13.20;;;4.40;99.90;;;;;;5069715;28;20119;-64
2022/11/22 03:41:07;;;;;;;26.30;13.85;;;4.40;99.90;;;;;;5067941;28;20082;-64
2022/11/22 03:43:32;;;;;;;26.35;13.30;;;4.40;99.90;;;;;;5070685;28;20036;-64
2022/11/22 03:45:58;;;;;;;30.25;14.23;;;4.40;99.90;;;;;;5075545;28;20102;-64
2022/11/22 03:48:23;;;;;;;26.33;13.23;;;4.40;99.90;;;;;;5072069;28;20036;-64
2022/11/22 03:50:49;;;;;;;29.10;13.40;;;4.40;99.90;;;;;;5068343;28;20036;-64
2022/11/22 03:53:15;;;;;;;28.58;13.95;;;4.40;99.90;;;;;;5071806;28;20072;-64
2022/11/22 03:55:40;;;;;;;29.77;13.80;;;4.40;99.90;;;;;;5070099;28;20091;-64
2022/11/22 03:58:06;;;;;;;27.98;12.60;;;4.50;99.90;;;;;;5071217;28;20040;-64
2022/11/22 04:00:33;;;;;;;27.75;13.80;;;4.50;99.90;;;;;;5076555;28;20420;-64
2022/11/22 04:02:59;;;;;;;25.60;13.15;;;4.50;99.90;;;;;;5070514;28;20064;-65
2022/11/22 04:05:25;;;;;;;27.65;13.02;;;4.50;99.90;;;;;;5069740;28;20069;-64
2022/11/22 04:07:56;;;;;;;27.98;12.90;;;4.50;99.90;;;;;;5098867;22;20390;-63
2022/11/22 04:10:25;;;;;;;28.00;14.13;;;4.50;99.90;;;;;;5080560;28;20084;-63
2022/11/22 04:12:55;;;;;;;27.67;13.30;;;4.50;99.90;;;;;;5090680;28;20507;-64
2022/11/22 04:15:20;;;;;;;27.90;12.35;;;4.60;99.90;;;;;;5086031;28;20051;-63
2022/11/22 04:17:47;;;;;;;23.95;11.90;;;4.60;99.90;;;;;;5076867;28;20044;-63
2022/11/22 04:23:12;;;;;;;23.60;11.90;;;4.60;99.90;;;;;;5066037;28;20040;-63
2022/11/22 04:25:40;;;;;;;25.17;13.13;;;4.60;99.90;;;;;;5069256;28;20056;-63
2022/11/22 04:28:07;;;;;;;27.75;12.45;;;4.60;99.90;;;;;;5052132;28;20048;-63
2022/11/22 04:33:18;;;;;;;26.25;12.27;;;4.60;99.90;;;;;;5071342;28;20508;-63
2022/11/22 04:35:44;;;;;;;29.45;12.65;;;4.70;99.90;;;;;;5070243;28;20112;-63
2022/11/22 04:38:11;;;;;;;23.88;12.50;;;4.70;99.90;;;;;;5070191;28;20087;-63
2022/11/22 04:40:37;;;;;;;26.90;13.25;;;4.70;99.90;;;;;;5066116;28;20616;-63
2022/11/22 04:45:48;;;;;;;26.58;12.88;;;4.70;99.90;;;;;;5082900;28;20105;-63
2022/11/22 04:48:15;;;;;;;27.10;12.90;;;4.80;99.90;;;;;;5078316;28;20040;-64
2022/11/22 04:53:27;;;;;;;26.55;12.70;;;4.70;99.90;;;;;;5080245;28;20046;-63
2022/11/22 04:55:53;;;;;;;27.75;12.30;;;4.70;99.90;;;;;;5082283;28;20044;-63
2022/11/22 04:58:19;;;;;;;24.92;12.05;;;4.80;99.90;;;;;;5075010;28;20135;-63
2022/11/22 05:00:44;;;;;;;27.50;12.60;;;4.80;99.90;;;;;;5077078;28;20025;-64
2022/11/22 05:03:10;;;;;;;27.80;13.50;;;4.80;99.90;;;;;;5039957;28;20037;-64
2022/11/22 05:05:41;;;;;;;26.58;13.25;;;4.80;99.90;;;;;;5055795;28;20048;-64
2022/11/22 05:08:08;;;;;;;23.27;12.60;;;4.80;99.90;;;;;;5054738;28;20044;-64
2022/11/22 05:13:20;;;;;;;27.00;13.52;;;4.80;99.90;;;;;;5066689;28;20086;-64
2022/11/22 05:15:46;;;;;;;26.80;12.82;;;4.90;99.90;;;;;;5063195;28;20097;-64
2022/11/22 05:18:12;;;;;;;29.63;13.27;;;4.90;99.90;;;;;;5082878;28;20115;-64
2022/11/22 05:20:38;;;;;;;26.10;12.65;;;4.90;99.90;;;;;;5077235;28;20547;-64
2022/11/22 05:25:48;;;;;;;27.58;13.63;;;4.90;99.90;;;;;;5065162;28;20044;-64
2022/11/22 05:28:13;;;;;;;27.48;13.30;;;4.90;99.90;;;;;;5083129;28;20575;-64
2022/11/22 05:30:40;;;;;;;24.60;12.15;;;5.00;99.90;;;;;;5087872;28;20405;-64
2022/11/22 05:33:05;;;;;;;25.17;13.07;;;5.00;99.90;;;;;;5087060;28;20024;-64
2022/11/22 05:35:31;;;;;;;25.70;13.60;;;5.00;99.90;;;;;;5080069;28;20177;-64
2022/11/22 05:37:57;;;;;;;27.90;13.18;;;5.00;99.90;;;;;;5072627;28;20039;-64
2022/11/22 05:40:24;;;;;;;27.67;13.40;;;5.00;99.90;;;;;;5065204;28;20056;-64
2022/11/22 05:42:49;;;;;;;27.08;13.65;;;5.00;99.90;;;;;;5070076;28;20064;-63
2022/11/22 05:45:15;;;;;;;24.17;12.38;;;5.00;99.90;;;;;;5075104;28;20129;-64
2022/11/22 05:47:41;;;;;;;28.45;13.55;;;5.00;99.90;;;;;;5071862;28;20036;-63
2022/11/22 05:50:07;;;;;;;26.33;12.85;;;5.10;99.90;;;;;;5076684;28;20446;-64
2022/11/22 05:52:33;;;;;;;32.70;13.07;;;5.10;99.90;;;;;;5067656;28;20064;-64
2022/11/22 05:54:59;;;;;;;26.95;12.90;;;5.00;99.90;;;;;;5039341;28;20041;-64
2022/11/22 05:57:24;;;;;;;24.58;13.20;;;5.10;99.90;;;;;;5070314;28;20442;-64
2022/11/22 05:59:50;;;;;;;26.95;13.10;;;5.10;99.90;;;;;;5076124;28;20110;-64
2022/11/22 06:02:15;;;;;;;25.48;12.13;;;5.10;99.90;;;;;;5072409;28;20040;-64
2022/11/22 06:04:41;;;;;;;28.77;13.60;;;5.10;99.90;;;;;;5073347;28;20123;-64
2022/11/22 06:07:07;;;;;;;27.33;12.45;;;5.10;99.90;;;;;;5067938;28;20067;-64
2022/11/22 06:09:32;;;;;;;24.98;12.32;;;5.00;99.90;;;;;;5073037;28;20037;-64
2022/11/22 06:11:58;;;;;;;26.90;12.77;;;5.00;99.90;;;;;;5089117;28;20064;-64
2022/11/22 06:14:23;;;;;;;28.00;12.88;;;5.00;99.90;;;;;;5073230;28;20094;-64
2022/11/22 06:16:50;;;;;;;27.15;13.43;;;5.10;99.90;;;;;;5072592;28;20043;-64
2022/11/22 06:19:16;;;;;;;26.80;13.02;;;5.10;99.90;;;;;;5080199;28;20046;-63
2022/11/22 06:21:42;;;;;;;25.58;13.50;;;5.10;99.90;;;;;;5060578;28;20503;-63
2022/11/22 06:24:08;;;;;;;26.30;12.73;;;5.00;99.90;;;;;;5073967;28;20041;-64
2022/11/22 06:26:34;;;;;;;25.33;12.30;;;5.10;99.90;;;;;;5072843;28;20029;-64
2022/11/22 06:28:59;;;;;;;27.70;12.93;;;5.10;99.90;;;;;;5053316;28;20068;-64
2022/11/22 06:31:27;;;;;;;26.42;12.68;;;5.00;99.90;;;;;;5072282;28;20095;-64
2022/11/22 06:33:54;;;;;;;29.17;12.70;;;5.10;99.90;;;;;;5030722;28;20032;-64
2022/11/22 06:36:25;;;;;;;23.13;11.95;;;5.10;99.90;;;;;;5053232;28;20044;-64
2022/11/22 06:38:51;;;;;;;24.00;11.85;;;5.10;99.90;;;;;;5075509;28;20123;-64
2022/11/22 06:41:19;;;;;;;21.17;11.27;;;5.10;99.90;;;;;;5073286;28;20186;-64
2022/11/22 06:43:47;;;;;;;26.48;11.65;;;5.10;99.90;;;;;;5054168;28;20093;-64
2022/11/22 06:46:13;;;;;;;22.25;10.43;;;5.00;99.90;;;;;;5060306;28;20043;-64
2022/11/22 06:48:41;;;;;;;30.83;11.23;;;5.10;99.90;;;;;;5048623;28;20090;-64
2022/11/22 06:51:08;;;;;;;29.63;10.10;;;5.00;99.90;;;;;;5061132;28;20040;-64
2022/11/22 06:53:35;;;;;;;20.50;8.98;;;5.10;99.90;;;;;;5066335;28;20132;-64
2022/11/22 06:56:06;;;;;;;36.15;11.50;;;5.00;99.90;;;;;;5075708;28;20060;-64
2022/11/22 06:58:32;;;;;;;20.13;9.07;;;5.10;99.90;;;;;;5068808;28;20032;-64
2022/11/22 07:01:02;;;;;;;20.02;9.63;;;5.10;99.90;;;;;;5069689;28;20494;-64
2022/11/22 07:03:28;;;;;;;24.00;10.43;;;5.10;99.90;;;;;;5055222;28;20494;-64
2022/11/22 07:05:54;;;;;;;26.35;9.25;;;5.10;99.90;;;;;;5072056;28;20044;-64
2022/11/22 07:08:19;;;;;;;26.67;8.63;;;5.10;99.90;;;;;;5070308;28;20073;-64
2022/11/22 07:10:45;;;;;;;27.50;10.65;;;5.10;99.90;;;;;;5061323;28;20051;-64
2022/11/22 07:13:10;;;;;;;24.83;10.25;;;5.10;99.90;;;;;;5084165;28;20390;-64
2022/11/22 07:15:36;;;;;;;27.15;9.23;;;5.10;99.90;;;;;;5047824;28;20113;-64
2022/11/22 07:18:01;;;;;;;21.00;8.63;;;5.10;99.90;;;;;;5065858;28;20561;-64
2022/11/22 07:20:27;;;;;;;25.73;8.60;;;5.10;99.90;;;;;;5067221;28;20598;-64
2022/11/22 07:22:53;;;;;;;23.17;8.27;;;5.10;99.90;;;;;;5064597;28;20452;-64
2022/11/22 07:25:18;;;;;;;27.13;9.85;;;5.10;99.90;;;;;;5073265;28;20040;-64
2022/11/22 07:27:44;;;;;;;18.45;7.47;;;5.10;99.90;;;;;;5080290;28;20051;-64
2022/11/22 07:30:10;;;;;;;18.92;7.47;;;5.20;99.90;;;;;;5051346;28;20032;-64
2022/11/22 07:32:35;;;;;;;21.13;7.82;;;5.30;99.90;;;;;;5067246;28;20056;-64
2022/11/22 07:35:01;;;;;;;16.55;6.43;;;5.20;99.90;;;;;;5070958;28;20670;-64
2022/11/22 07:37:26;;;;;;;20.77;6.38;;;5.30;99.90;;;;;;5070017;28;20041;-64
2022/11/22 07:39:53;;;;;;;16.90;6.22;;;5.30;99.90;;;;;;5081873;28;20115;-64
2022/11/22 07:42:18;;;;;;;14.70;5.65;;;5.30;99.90;;;;;;5081044;28;20071;-64
2022/11/22 07:44:44;;;;;;;21.38;5.35;;;5.30;99.90;;;;;;5072754;28;20068;-64
2022/11/22 07:47:09;;;;;;;20.63;6.07;;;5.30;99.90;;;;;;5071461;28;20098;-64
2022/11/22 07:49:35;;;;;;;13.60;4.90;;;5.30;99.90;;;;;;5071469;28;20032;-64
2022/11/22 07:52:00;;;;;;;16.30;4.72;;;5.30;99.90;;;;;;5047079;28;20478;-64
2022/11/22 07:54:26;;;;;;;16.65;4.93;;;5.30;99.90;;;;;;5069983;28;20040;-64
2022/11/22 07:56:51;;;;;;;14.55;4.20;;;5.20;99.90;;;;;;5069612;28;20413;-64
2022/11/22 07:59:17;;;;;;;21.45;4.60;;;5.30;99.90;;;;;;5071504;28;20547;-64
2022/11/22 08:01:43;;;;;;;16.73;4.40;;;5.30;99.90;;;;;;5051909;28;20044;-64
2022/11/22 08:04:08;;;;;;;19.88;4.35;;;5.30;99.90;;;;;;5056129;28;20036;-64
2022/11/22 08:06:34;;;;;;;17.33;4.00;;;5.30;99.90;;;;;;5076184;28;20090;-64
2022/11/22 08:08:59;;;;;;;17.17;3.90;;;5.30;99.90;;;;;;5054283;28;20037;-64
2022/11/22 08:11:25;;;;;;;14.13;4.03;;;5.30;99.90;;;;;;5074711;28;20115;-64
2022/11/22 08:13:51;;;;;;;12.23;3.45;;;5.30;99.90;;;;;;5058620;28;20072;-64
2022/11/22 08:16:17;;;;;;;15.93;3.90;;;5.30;99.90;;;;;;5061976;28;20043;-64
2022/11/22 08:18:47;;;;;;;15.75;4.15;;;5.30;99.90;;;;;;5067854;28;20055;-64
2022/11/22 08:21:14;;;;;;;15.68;3.65;;;5.30;99.90;;;;;;5056460;28;20067;-64
2022/11/22 08:23:40;;;;;;;16.42;3.85;;;5.30;99.90;;;;;;5069287;28;20083;-64
2022/11/22 08:26:08;;;;;;;18.17;3.78;;;5.30;99.90;;;;;;5070236;28;20040;-64
2022/11/22 08:28:34;;;;;;;12.90;3.47;;;5.40;99.90;;;;;;5047650;28;20036;-64
2022/11/22 08:31:03;;;;;;;11.80;3.03;;;5.40;99.90;;;;;;5052580;28;20036;-64
2022/11/22 08:33:29;;;;;;;14.80;3.60;;;5.50;99.90;;;;;;5068405;28;20040;-64
2022/11/22 08:35:55;;;;;;;13.75;3.30;;;5.50;99.90;;;;;;5067431;28;20493;-64
2022/11/22 08:38:20;;;;;;;16.02;3.17;;;5.50;99.90;;;;;;5074876;28;20041;-64
2022/11/22 08:40:46;;;;;;;16.65;3.60;;;5.60;99.90;;;;;;5069135;28;20193;-64
2022/11/22 08:43:11;;;;;;;12.18;3.17;;;5.60;99.90;;;;;;5066334;28;20036;-64
2022/11/22 08:45:37;;;;;;;17.30;3.30;;;5.70;99.90;;;;;;5068667;28;20035;-64
2022/11/22 08:48:03;;;;;;;14.77;3.63;;;5.70;99.90;;;;;;5078827;28;20153;-64
2022/11/22 08:50:29;;;;;;;17.67;3.28;;;5.80;99.90;;;;;;5074148;28;20119;-64
2022/11/22 08:52:54;;;;;;;12.20;3.10;;;5.90;99.90;;;;;;5053711;28;20044;-64
2022/11/22 08:55:20;;;;;;;15.40;3.55;;;5.90;99.90;;;;;;5070681;28;20040;-64
2022/11/22 08:57:45;;;;;;;13.13;2.75;;;6.00;99.90;;;;;;5068820;28;20084;-64
2022/11/22 09:00:11;;;;;;;10.27;2.78;;;6.10;99.90;;;;;;5069918;28;20040;-64
2022/11/22 09:02:37;;;;;;;13.10;3.03;;;6.10;99.90;;;;;;5064887;28;20105;-64
2022/11/22 09:05:02;;;;;;;11.00;2.70;;;6.20;99.90;;;;;;5061639;28;20155;-64
2022/11/22 09:07:28;;;;;;;15.18;3.45;;;6.30;99.90;;;;;;5062753;28;20479;-64
2022/11/22 09:09:54;;;;;;;12.65;3.03;;;6.30;99.90;;;;;;5071198;28;20060;-65
2022/11/22 09:12:20;;;;;;;11.57;2.92;;;6.30;99.90;;;;;;5067573;28;20029;-64
2022/11/22 09:14:46;;;;;;;12.10;3.13;;;6.40;99.90;;;;;;5056650;28;20123;-64
2022/11/22 09:17:11;;;;;;;10.40;2.67;;;6.40;99.90;;;;;;5048467;28;20128;-64
2022/11/22 09:19:37;;;;;;;13.07;2.80;;;6.50;99.90;;;;;;5068627;28;20043;-64
2022/11/22 09:22:02;;;;;;;14.90;3.08;;;6.50;99.90;;;;;;5077301;28;20040;-64
2022/11/22 09:24:28;;;;;;;15.63;2.90;;;6.50;99.90;;;;;;5068695;28;20119;-64
2022/11/22 09:26:53;;;;;;;14.05;3.20;;;6.50;99.90;;;;;;5051821;28;20050;-64
2022/11/22 09:29:19;;;;;;;14.38;3.55;;;6.50;99.90;;;;;;5073289;28;20090;-64
2022/11/22 09:31:44;;;;;;;11.25;2.70;;;6.50;99.90;;;;;;5077744;28;20045;-64
2022/11/22 09:34:10;;;;;;;12.57;3.05;;;6.60;99.90;;;;;;5067652;28;20048;-64
2022/11/22 09:36:36;;;;;;;12.95;3.15;;;6.60;99.90;;;;;;5077944;28;20116;-64
2022/11/22 09:39:01;;;;;;;8.05;2.38;;;6.60;99.90;;;;;;5077725;28;20063;-64
2022/11/22 09:41:48;;;;;;;10.75;3.17;;;6.60;99.90;;;;;;5072461;28;20064;-64
2022/11/22 09:44:32;;;;;;;8.20;2.80;;;6.70;99.90;;;;;;5054735;28;20051;-64
2022/11/22 09:47:18;;;;;;;10.38;2.70;;;6.70;99.90;;;;;;5068346;28;20047;-64
2022/11/22 09:50:22;;;;;;;11.93;2.92;;;6.70;99.90;;;;;;5056685;28;20036;-64
2022/11/22 09:53:03;;;;;;;18.65;3.05;;;6.70;99.90;;;;;;5072417;28;20105;-64
2022/11/22 09:55:41;;;;;;;11.88;2.67;;;6.60;99.90;;;;;;5067671;28;20186;-63
2022/11/22 09:58:37;;;;;;;7.53;2.33;;;6.60;99.90;;;;;;5071226;28;20231;-64
2022/11/22 10:01:13;;;;;;;10.48;2.88;;;6.60;99.90;;;;;;5070848;28;20044;-64
2022/11/22 10:03:50;;;;;;;11.30;2.75;;;6.70;99.90;;;;;;5070643;28;20036;-64
2022/11/22 10:06:21;;;;;;;7.63;2.30;;;6.70;99.90;;;;;;5067058;28;20037;-64
2022/11/22 10:09:06;;;;;;;7.32;2.00;;;6.70;99.90;;;;;;5060517;28;20041;-64
2022/11/22 10:11:34;;;;;;;14.32;3.10;;;6.70;99.90;;;;;;5070498;28;20045;-64
2022/11/22 10:14:03;;;;;;;12.88;2.53;;;6.70;99.90;;;;;;5051121;28;20040;-64
2022/11/22 10:16:35;;;;;;;10.95;3.08;;;6.80;99.90;;;;;;5065061;28;20041;-64
2022/11/22 10:19:19;;;;;;;8.32;2.40;;;6.80;99.90;;;;;;5065377;28;20075;-64
2022/11/22 10:21:47;;;;;;;6.97;1.67;;;6.80;99.90;;;;;;5067646;28;20063;-64
2022/11/22 10:24:17;;;;;;;10.20;2.58;;;6.80;99.90;;;;;;5072386;28;20129;-63
2022/11/22 10:26:43;;;;;;;9.80;2.47;;;6.90;99.90;;;;;;5069675;28;20036;-64
2022/11/22 10:29:36;;;;;;;7.88;2.15;;;6.90;99.90;;;;;;5069055;28;20033;-64
2022/11/22 10:32:32;;;;;;;9.98;2.00;;;6.90;99.90;;;;;;5048760;28;20032;-64
2022/11/22 10:35:12;;;;;;;10.65;2.33;;;6.90;99.90;;;;;;5066823;28;20333;-64
2022/11/22 10:38:05;;;;;;;10.25;2.58;;;7.00;99.90;;;;;;5062588;28;20044;-64
2022/11/22 10:40:49;;;;;;;9.85;2.38;;;7.00;99.90;;;;;;5049159;28;20579;-64
2022/11/22 10:43:27;;;;;;;14.45;2.65;;;7.00;99.90;;;;;;5080968;28;20105;-64
2022/11/22 10:46:20;;;;;;;11.27;2.65;;;7.10;99.90;;;;;;5071770;28;20036;-64
2022/11/22 10:48:57;;;;;;;6.85;2.17;;;7.10;99.90;;;;;;5081737;28;20040;-63
2022/11/22 10:51:39;;;;;;;11.55;2.28;;;7.10;99.90;;;;;;5073286;28;20055;-63
2022/11/22 10:54:26;;;;;;;10.02;2.38;;;7.20;99.90;;;;;;5053439;28;20044;-64
2022/11/22 10:56:54;;;;;;;10.68;2.28;;;7.30;99.90;;;;;;5062780;28;20181;-64
2022/11/22 10:59:48;;;;;;;9.10;2.15;;;7.30;99.90;;;;;;5081408;28;20056;-64
2022/11/22 11:02:52;;;;;;;6.35;2.05;;;7.40;99.90;;;;;;5072188;28;20044;-64
2022/11/22 11:05:21;;;;;;;9.55;2.30;;;7.40;99.90;;;;;;5053100;28;20041;-65
2022/11/22 11:07:49;;;;;;;11.05;2.08;;;7.40;99.90;;;;;;5073056;28;20075;-64
2022/11/22 11:10:30;;;;;;;6.85;2.00;;;7.40;99.90;;;;;;5063985;28;20063;-64
2022/11/22 11:13:03;;;;;;;8.05;1.98;;;7.40;99.90;;;;;;5072513;28;20043;-64
2022/11/22 11:15:42;;;;;;;8.23;1.70;;;7.40;99.90;;;;;;5072355;28;20443;-64
2022/11/22 11:18:15;;;;;;;11.35;2.63;;;7.40;99.90;;;;;;5070869;28;20119;-63
2022/11/22 11:20:42;;;;;;;6.18;1.88;;;7.40;99.90;;;;;;5064764;28;20048;-63
2022/11/22 11:23:11;;;;;;;6.03;2.08;;;7.50;99.90;;;;;;5092891;28;20048;-64
2022/11/22 11:25:39;;;;;;;9.07;2.10;;;7.50;99.90;;;;;;5070146;28;20071;-64
2022/11/22 11:28:20;;;;;;;6.60;1.70;;;7.50;99.90;;;;;;5064072;28;20081;-64
2022/11/22 11:31:06;;;;;;;8.48;2.00;;;7.50;99.90;;;;;;5061425;28;20036;-63
2022/11/22 11:33:34;;;;;;;8.35;1.83;;;7.50;99.90;;;;;;5057615;28;20485;-63
2022/11/22 11:36:16;;;;;;;6.97;2.33;;;7.50;99.90;;;;;;5068333;28;20047;-64
2022/11/22 11:38:42;;;;;;;7.35;1.98;;;7.60;99.90;;;;;;5078617;28;20040;-64
2022/11/22 11:41:30;;;;;;;11.63;2.40;;;7.60;99.90;;;;;;5070044;28;20042;-64
2022/11/22 11:44:01;;;;;;;9.48;1.83;;;7.60;99.90;;;;;;5067745;28;20044;-64
2022/11/22 11:46:40;;;;;;;7.70;1.90;;;7.60;99.90;;;;;;5066061;28;20398;-64
2022/11/22 11:49:14;;;;;;;9.70;2.05;;;7.60;99.90;;;;;;5052598;28;20044;-63
2022/11/22 11:51:41;;;;;;;15.07;2.10;;;7.70;99.90;;;;;;5061497;28;20046;-64
2022/11/22 11:54:18;;;;;;;6.35;1.85;;;7.60;99.90;;;;;;5066960;28;20032;-63
2022/11/22 11:56:47;;;;;;;10.38;2.03;;;7.60;99.90;;;;;;5077222;28;20085;-64
2022/11/22 11:59:37;;;;;;;6.18;1.67;;;7.60;99.90;;;;;;5068816;28;20051;-63
2022/11/22 12:02:09;;;;;;;7.75;1.80;;;7.70;99.90;;;;;;5068940;28;20066;-63
2022/11/22 12:04:47;;;;;;;9.18;1.98;;;7.60;99.90;;;;;;5070364;28;20048;-63
2022/11/22 12:07:19;;;;;;;6.60;2.00;;;7.70;99.90;;;;;;5077067;28;20041;-64
2022/11/22 12:09:47;;;;;;;8.88;2.05;;;7.70;99.90;;;;;;5067226;28;20064;-63
2022/11/22 12:12:45;;;;;;;6.53;2.10;;;7.70;99.90;;;;;;5074908;28;20111;-63
2022/11/22 12:15:14;;;;;;;6.07;2.20;;;7.70;99.90;;;;;;5068806;28;20048;-64
2022/11/22 12:17:53;;;;;;;8.88;2.30;;;7.70;99.90;;;;;;5066920;28;20046;-64
2022/11/22 12:20:46;;;;;;;9.60;2.10;;;7.70;99.90;;;;;;5062508;28;20036;-64
2022/11/22 12:23:21;;;;;;;7.03;1.80;;;7.70;99.90;;;;;;5049577;28;20044;-63
2022/11/22 12:25:48;;;;;;;8.73;1.85;;;7.70;99.90;;;;;;5059740;28;20047;-63
2022/11/22 12:28:22;;;;;;;7.57;1.95;;;7.70;99.90;;;;;;5076283;28;20036;-63
2022/11/22 12:31:16;;;;;;;3.67;1.70;;;7.70;99.90;;;;;;5069138;28;20037;-64
2022/11/22 12:33:49;;;;;;;8.90;1.90;;;7.80;99.90;;;;;;5065790;28;20051;-64
2022/11/22 12:36:28;;;;;;;5.93;1.55;;;7.80;99.90;;;;;;5073587;28;20044;-64
2022/11/22 12:38:56;;;;;;;7.45;1.70;;;7.80;99.90;;;;;;5066095;28;20115;-64
2022/11/22 12:41:26;;;;;;;5.53;1.88;;;7.80;99.90;;;;;;5068201;28;20048;-64
2022/11/22 12:43:59;;;;;;;10.18;2.17;;;7.80;99.90;;;;;;5077083;28;20520;-64
2022/11/22 12:46:39;;;;;;;7.13;1.80;;;7.80;99.90;;;;;;5060808;28;20112;-64
2022/11/22 12:49:33;;;;;;;7.70;1.88;;;7.90;99.90;;;;;;5063530;28;20398;-63
2022/11/22 12:52:23;;;;;;;8.27;1.80;;;7.80;99.90;;;;;;5031753;28;20114;-63
2022/11/22 12:54:51;;;;;;;6.95;1.55;;;7.80;99.90;;;;;;5057548;28;20447;-63
2022/11/22 12:57:22;;;;;;;5.38;1.55;;;7.80;99.90;;;;;;5081915;28;20434;-64
2022/11/22 13:00:01;;;;;;;;;;;7.80;99.90;;;;;;5068104;28;20036;-64
2022/11/22 13:02:43;;;;;;;7.28;2.00;;;7.70;99.90;;;;;;5050082;28;19916;-64
2022/11/22 13:05:23;;;;;;;7.57;1.60;;;7.70;99.90;;;;;;5070182;28;20486;-64
2022/11/22 13:08:07;;;;;;;7.72;1.60;;;7.70;99.90;;;;;;5067805;28;20060;-64
2022/11/22 13:10:42;;;;;;;6.55;1.42;;;7.70;99.90;;;;;;5074128;28;20048;-64